Time;durP1;ratioP1;P1;durP2;ratioP2;P2;SDS_P1;SDS_P2;PMS_P1;PMS_P2;Temp;Humidity;BMP_temperature;BMP_pressure;BME280_temperature;BME280_humidity;BME280_pressure;Samples;Min_cycle;Max_cycle;Signal;HPM_P1;HPM_P2
2023/05/18 00:02:17;;;;;;;18.73;7.23;;;10.10;99.90;;;;;;7293484;19;20209;-91
2023/05/18 00:04:43;;;;;;;18.73;6.57;;;10.10;99.90;;;;;;7292001;19;20705;-92
2023/05/18 00:07:09;;;;;;;20.27;6.10;;;10.00;99.90;;;;;;7315565;19;20195;-91
2023/05/18 00:09:36;;;;;;;17.60;6.40;;;10.00;99.90;;;;;;7293349;19;20190;-91
2023/05/18 00:12:03;;;;;;;20.83;7.20;;;10.00;99.90;;;;;;7293126;19;20230;-91
2023/05/18 00:14:29;;;;;;;18.07;6.40;;;9.90;99.90;;;;;;7295038;19;20200;-90
2023/05/18 00:16:56;;;;;;;18.77;6.00;;;10.00;99.90;;;;;;7293402;19;20254;-91
2023/05/18 00:19:27;;;;;;;20.43;5.57;;;10.00;99.90;;;;;;7292956;19;20685;-93
2023/05/18 00:21:54;;;;;;;21.67;6.13;;;10.00;99.90;;;;;;7294614;19;20661;-90
2023/05/18 00:24:21;;;;;;;18.13;5.60;;;10.00;99.90;;;;;;7293239;19;20185;-91
2023/05/18 00:26:48;;;;;;;21.00;6.07;;;9.90;99.90;;;;;;7292308;19;20203;-91
2023/05/18 00:29:14;;;;;;;20.00;6.10;;;9.90;99.90;;;;;;7294473;19;20316;-91
2023/05/18 00:31:41;;;;;;;14.67;5.60;;;9.80;99.90;;;;;;7314950;19;20196;-91
2023/05/18 00:34:12;;;;;;;21.30;6.17;;;9.80;99.90;;;;;;7293403;19;20186;-91
2023/05/18 00:36:38;;;;;;;15.60;5.77;;;9.70;99.90;;;;;;7293377;19;20189;-90
2023/05/18 00:39:05;;;;;;;15.33;5.57;;;9.60;99.90;;;;;;7291454;19;20209;-91
2023/05/18 00:41:31;;;;;;;19.90;6.13;;;9.60;99.90;;;;;;7293225;19;21653;-91
2023/05/18 00:43:59;;;;;;;17.63;6.13;;;9.60;99.90;;;;;;7294489;19;20566;-92
2023/05/18 00:46:26;;;;;;;22.03;6.17;;;9.70;99.90;;;;;;7292820;19;20186;-92
2023/05/18 00:48:53;;;;;;;14.93;5.37;;;9.70;99.90;;;;;;7294131;19;20239;-91
2023/05/18 00:51:24;;;;;;;15.00;5.03;;;9.80;99.90;;;;;;7292874;19;20299;-92
2023/05/18 00:53:52;;;;;;;16.67;5.80;;;9.80;99.90;;;;;;7292900;19;20190;-91
2023/05/18 00:56:22;;;;;;;17.90;5.40;;;9.70;99.90;;;;;;7292650;19;20188;-92
2023/05/18 00:58:51;;;;;;;16.80;5.60;;;9.60;99.90;;;;;;7292101;19;20205;-92
2023/05/18 01:01:19;;;;;;;14.67;5.23;;;9.70;99.90;;;;;;7292860;19;20185;-92
2023/05/18 01:03:44;;;;;;;19.00;4.80;;;9.70;99.90;;;;;;7292503;19;20177;-94
2023/05/18 01:06:11;;;;;;;12.23;5.10;;;9.70;99.90;;;;;;7314747;19;20182;-91
2023/05/18 01:08:38;;;;;;;17.20;5.80;;;9.50;99.90;;;;;;7292991;19;20183;-92
2023/05/18 01:11:25;;;;;;;15.30;5.07;;;9.50;99.90;;;;;;7290330;19;20187;-91
2023/05/18 01:14:08;;;;;;;13.10;5.50;;;9.50;99.90;;;;;;7190839;19;2004411;-93
2023/05/18 01:17:00;;;;;;;16.77;4.97;;;9.50;99.90;;;;;;7294352;19;20194;-92
2023/05/18 01:19:34;;;;;;;15.33;5.00;;;9.40;99.90;;;;;;7190117;19;2004409;-93
2023/05/18 01:22:34;;;;;;;13.67;4.93;;;9.40;99.90;;;;;;7294591;19;20214;-93
2023/05/18 01:25:13;;;;;;;16.93;4.70;;;9.40;99.90;;;;;;7191219;19;2004489;-92
2023/05/18 01:27:45;;;;;;;13.10;4.40;;;9.40;99.90;;;;;;7293762;19;20212;-93
2023/05/18 01:30:18;;;;;;;15.33;4.93;;;9.40;99.90;;;;;;7291525;19;20181;-91
2023/05/18 01:32:47;;;;;;;14.13;4.10;;;9.40;99.90;;;;;;7294242;19;20198;-92
2023/05/18 01:35:13;;;;;;;15.60;4.30;;;9.30;99.90;;;;;;7300152;19;20190;-92
2023/05/18 01:37:39;;;;;;;15.03;3.80;;;9.40;99.90;;;;;;7314873;19;20200;-93
2023/05/18 01:40:08;;;;;;;19.17;4.20;;;9.50;99.90;;;;;;7292715;19;20190;-91
2023/05/18 01:42:38;;;;;;;19.43;4.17;;;9.50;99.90;;;;;;7293165;19;20289;-92
2023/05/18 01:45:12;;;;;;;16.23;4.07;;;9.40;99.90;;;;;;7291931;19;20186;-92
2023/05/18 01:47:43;;;;;;;19.33;4.27;;;9.40;99.90;;;;;;7296047;19;20290;-92
2023/05/18 01:50:13;;;;;;;15.83;4.00;;;9.30;99.90;;;;;;7291935;19;20207;-92
2023/05/18 01:52:50;;;;;;;14.23;4.00;;;9.30;99.90;;;;;;7291828;19;20540;-92
2023/05/18 01:55:18;;;;;;;14.27;3.73;;;9.30;99.90;;;;;;7270915;19;20194;-92
2023/05/18 01:57:45;;;;;;;14.70;4.00;;;9.40;99.90;;;;;;7292575;19;20186;-91
2023/05/18 02:00:16;;;;;;;17.23;4.03;;;9.50;99.90;;;;;;7294371;19;20218;-92
2023/05/18 02:02:43;;;;;;;17.57;3.80;;;9.60;99.90;;;;;;7314304;19;20242;-92
2023/05/18 02:05:11;;;;;;;18.80;4.50;;;9.60;99.90;;;;;;7318651;19;20185;-92
2023/05/18 02:07:38;;;;;;;15.33;4.07;;;9.70;99.90;;;;;;7296367;19;20747;-92
2023/05/18 02:10:06;;;;;;;19.40;4.17;;;9.70;99.90;;;;;;7294097;19;20242;-91
2023/05/18 02:12:32;;;;;;;18.30;4.13;;;9.60;99.90;;;;;;7294862;19;20242;-92
2023/05/18 02:14:59;;;;;;;16.00;4.30;;;9.60;99.90;;;;;;7292417;19;20204;-93
2023/05/18 02:17:25;;;;;;;15.90;4.50;;;9.50;99.90;;;;;;7292077;19;20200;-92
2023/05/18 02:19:51;;;;;;;17.63;4.17;;;9.40;99.90;;;;;;7290247;19;20189;-91
2023/05/18 02:22:21;;;;;;;17.87;4.47;;;9.40;99.90;;;;;;7289659;19;20226;-92
2023/05/18 02:24:47;;;;;;;16.07;4.27;;;9.50;99.90;;;;;;7291326;19;20541;-92
2023/05/18 02:27:14;;;;;;;14.90;4.17;;;9.50;99.90;;;;;;7292423;19;20190;-92
2023/05/18 02:29:40;;;;;;;16.10;4.20;;;9.40;99.90;;;;;;7314701;19;20210;-92
2023/05/18 02:32:06;;;;;;;11.30;3.93;;;9.30;99.90;;;;;;7290895;19;20186;-93
2023/05/18 02:34:34;;;;;;;16.23;4.57;;;9.40;99.90;;;;;;7291427;19;20208;-93
2023/05/18 02:37:03;;;;;;;15.20;4.10;;;9.40;99.90;;;;;;7290693;19;20202;-91
2023/05/18 02:39:29;;;;;;;13.73;4.37;;;9.30;99.90;;;;;;7289605;19;20186;-92
2023/05/18 02:41:55;;;;;;;17.10;4.20;;;9.20;99.90;;;;;;7292393;19;20202;-93
2023/05/18 02:44:21;;;;;;;18.20;4.83;;;9.30;99.90;;;;;;7292152;19;20179;-92
2023/05/18 02:46:48;;;;;;;12.87;4.63;;;9.30;99.90;;;;;;7290803;19;20199;-92
2023/05/18 02:49:13;;;;;;;14.27;4.10;;;9.20;99.90;;;;;;7292115;19;20182;-93
2023/05/18 02:51:40;;;;;;;17.50;4.63;;;9.10;99.90;;;;;;7311393;19;20212;-91
2023/05/18 02:54:06;;;;;;;17.13;4.33;;;9.10;99.90;;;;;;7290894;19;20265;-91
2023/05/18 02:56:35;;;;;;;13.27;4.40;;;8.90;99.90;;;;;;7290115;19;20181;-92
2023/05/18 02:59:14;;;;;;;19.20;4.57;;;8.90;99.90;;;;;;7271665;19;20191;-92
2023/05/18 03:01:41;;;;;;;17.07;4.60;;;9.00;99.90;;;;;;7310780;19;20293;-91
2023/05/18 03:04:08;;;;;;;15.60;4.80;;;9.10;99.90;;;;;;7309497;19;20191;-92
2023/05/18 03:06:39;;;;;;;18.87;4.60;;;9.20;99.90;;;;;;7289457;19;20291;-92
2023/05/18 03:09:04;;;;;;;23.20;4.90;;;9.30;99.90;;;;;;7291179;19;20192;-93
2023/05/18 03:11:35;;;;;;;16.97;5.63;;;9.30;99.90;;;;;;7289960;19;20198;-92
2023/05/18 03:14:01;;;;;;;21.50;5.10;;;9.30;99.90;;;;;;7290680;19;20185;-93
2023/05/18 03:16:27;;;;;;;17.17;4.90;;;9.30;99.90;;;;;;7290924;19;20195;-93
2023/05/18 03:18:54;;;;;;;17.00;4.70;;;9.30;99.90;;;;;;7288762;19;20209;-92
2023/05/18 03:21:20;;;;;;;13.27;4.23;;;9.30;99.90;;;;;;7289774;19;20189;-91
2023/05/18 03:23:46;;;;;;;13.13;4.83;;;9.30;99.90;;;;;;7289279;19;20231;-92
2023/05/18 03:26:13;;;;;;;15.80;4.80;;;9.40;99.90;;;;;;7301046;19;20193;-93
2023/05/18 03:28:39;;;;;;;13.73;4.57;;;9.40;99.90;;;;;;7312962;19;20177;-92
2023/05/18 03:31:05;;;;;;;17.57;5.00;;;9.20;99.90;;;;;;7289917;19;20216;-93
2023/05/18 03:33:32;;;;;;;15.07;4.73;;;8.90;99.90;;;;;;7295756;19;20202;-92
2023/05/18 03:36:03;;;;;;;19.90;4.90;;;8.80;99.90;;;;;;7297346;19;20688;-92
2023/05/18 03:38:28;;;;;;;18.83;5.07;;;9.00;99.90;;;;;;7296804;19;20199;-93
2023/05/18 03:41:01;;;;;;;19.20;5.20;;;8.90;99.90;;;;;;7298163;19;20225;-92
2023/05/18 03:43:28;;;;;;;19.87;5.50;;;8.80;99.90;;;;;;7297432;19;20188;-93
2023/05/18 03:45:55;;;;;;;15.23;4.73;;;8.90;99.90;;;;;;7295191;19;20189;-92
2023/05/18 03:48:23;;;;;;;21.30;5.53;;;8.90;99.90;;;;;;7298550;19;20181;-92
2023/05/18 03:50:49;;;;;;;16.30;5.17;;;8.90;99.90;;;;;;7296923;19;20830;-93
2023/05/18 03:53:20;;;;;;;19.77;5.23;;;8.90;99.90;;;;;;7296649;19;20192;-92
2023/05/18 03:55:50;;;;;;;16.60;5.23;;;9.00;99.90;;;;;;7297186;19;20586;-93
2023/05/18 03:58:18;;;;;;;17.83;5.50;;;9.00;99.90;;;;;;7295521;19;20193;-93
2023/05/18 04:00:46;;;;;;;17.57;5.47;;;8.90;99.90;;;;;;7296357;19;20217;-93
2023/05/18 04:03:13;;;;;;;20.40;6.43;;;8.80;99.90;;;;;;7314399;19;20198;-93
2023/05/18 04:05:42;;;;;;;17.63;5.17;;;8.70;99.90;;;;;;7318472;19;20541;-92
2023/05/18 04:08:13;;;;;;;18.33;5.40;;;8.70;99.90;;;;;;7297903;19;20188;-92
2023/05/18 04:10:42;;;;;;;19.03;5.23;;;8.70;99.90;;;;;;7296259;19;20527;-92
2023/05/18 04:13:08;;;;;;;14.93;5.50;;;8.90;99.90;;;;;;7295103;19;20188;-93
2023/05/18 04:15:35;;;;;;;20.13;5.63;;;8.80;99.90;;;;;;7293495;19;20196;-92
2023/05/18 04:18:01;;;;;;;17.17;5.27;;;8.80;99.90;;;;;;7289052;19;20189;-92
2023/05/18 04:20:28;;;;;;;17.67;6.20;;;8.80;99.90;;;;;;7293545;19;20188;-92
2023/05/18 04:22:56;;;;;;;19.87;6.30;;;8.80;99.90;;;;;;7294791;19;20196;-93
2023/05/18 04:25:26;;;;;;;23.73;5.03;;;8.70;99.90;;;;;;7294869;19;20217;-93
2023/05/18 04:27:53;;;;;;;20.83;5.70;;;8.70;99.90;;;;;;7296941;19;20189;-93
2023/05/18 04:30:22;;;;;;;18.97;5.53;;;8.80;99.90;;;;;;7293944;19;20181;-93
2023/05/18 04:32:49;;;;;;;17.77;5.87;;;8.90;99.90;;;;;;7293820;19;20189;-93
2023/05/18 04:35:17;;;;;;;21.97;5.90;;;9.00;99.90;;;;;;7292360;19;20186;-93
2023/05/18 04:37:44;;;;;;;17.80;6.00;;;9.10;99.90;;;;;;7298314;19;20276;-93
2023/05/18 04:40:19;;;;;;;16.77;5.70;;;9.10;99.90;;;;;;7297292;19;20699;-93
2023/05/18 04:42:46;;;;;;;15.37;5.47;;;9.10;99.90;;;;;;7297849;19;20648;-92
2023/05/18 04:45:21;;;;;;;15.33;5.30;;;9.20;99.90;;;;;;7295845;19;20197;-91
2023/05/18 04:47:52;;;;;;;16.10;5.77;;;9.30;99.90;;;;;;7298196;19;20201;-94
2023/05/18 04:50:19;;;;;;;16.67;5.77;;;9.50;99.90;;;;;;7295524;19;20184;-94
2023/05/18 04:52:47;;;;;;;19.20;5.80;;;9.60;99.90;;;;;;7294949;19;20202;-92
2023/05/18 04:55:24;;;;;;;16.63;5.50;;;9.80;99.90;;;;;;7293733;19;20229;-92
2023/05/18 04:57:55;;;;;;;20.23;5.50;;;10.00;99.90;;;;;;7290314;19;20190;-92
2023/05/18 05:00:25;;;;;;;15.97;5.37;;;10.20;99.90;;;;;;7292564;19;20256;-92
2023/05/18 05:02:51;;;;;;;23.70;6.30;;;10.30;99.90;;;;;;7294246;19;20300;-92
2023/05/18 05:05:17;;;;;;;15.43;5.90;;;10.50;99.90;;;;;;7293704;19;20198;-93
2023/05/18 05:07:44;;;;;;;18.53;5.77;;;10.60;99.90;;;;;;7303618;19;20207;-93
2023/05/18 05:10:10;;;;;;;18.30;6.07;;;10.60;99.90;;;;;;7315956;19;20192;-94
2023/05/18 05:12:37;;;;;;;14.07;5.57;;;10.80;99.90;;;;;;7292622;19;20195;-93
2023/05/18 05:15:04;;;;;;;19.40;5.43;;;10.90;99.90;;;;;;7294093;19;20192;-92
2023/05/18 05:17:30;;;;;;;14.17;5.60;;;11.00;99.90;;;;;;7293490;19;20270;-92
2023/05/18 05:19:55;;;;;;;19.80;6.00;;;10.90;99.90;;;;;;7292089;19;20588;-92
2023/05/18 05:22:22;;;;;;;13.63;5.30;;;10.80;99.90;;;;;;7293508;19;20195;-93
2023/05/18 05:24:48;;;;;;;14.43;5.27;;;10.80;99.90;;;;;;7293242;19;20618;-92
2023/05/18 05:27:13;;;;;;;19.77;6.03;;;10.80;99.90;;;;;;7301517;19;20190;-93
2023/05/18 05:29:41;;;;;;;16.17;6.03;;;10.80;99.90;;;;;;7315763;19;20186;-91
2023/05/18 05:32:08;;;;;;;17.13;5.33;;;10.60;99.90;;;;;;7294199;19;20226;-92
2023/05/18 05:34:34;;;;;;;19.73;5.80;;;10.70;99.90;;;;;;7292471;19;20689;-91
2023/05/18 05:37:00;;;;;;;18.30;5.73;;;10.50;99.90;;;;;;7292265;19;20254;-90
2023/05/18 05:39:25;;;;;;;17.83;6.30;;;10.70;99.90;;;;;;7289831;19;20194;-88
2023/05/18 05:41:53;;;;;;;18.70;5.43;;;10.70;99.90;;;;;;7290377;19;20583;-89
2023/05/18 05:44:18;;;;;;;17.40;5.40;;;10.70;99.90;;;;;;7290412;19;20187;-89
2023/05/18 05:46:45;;;;;;;16.43;5.63;;;10.90;99.90;;;;;;7288741;19;20218;-89
2023/05/18 05:49:13;;;;;;;14.73;5.60;;;11.20;99.90;;;;;;7308076;19;20197;-89
2023/05/18 05:51:39;;;;;;;14.27;5.20;;;11.80;99.90;;;;;;7306443;19;20207;-90
2023/05/18 05:54:05;;;;;;;20.47;6.17;;;12.20;99.90;;;;;;7290156;19;20189;-89
2023/05/18 05:56:30;;;;;;;16.33;5.57;;;12.20;99.90;;;;;;7290977;19;22493;-87
2023/05/18 05:58:56;;;;;;;17.60;6.13;;;12.30;99.90;;;;;;7290448;19;20714;-88
2023/05/18 06:01:22;;;;;;;15.23;5.20;;;12.00;99.90;;;;;;7290162;19;20191;-88
2023/05/18 06:03:50;;;;;;;19.07;5.70;;;11.90;99.90;;;;;;7290188;19;20200;-89
2023/05/18 06:06:16;;;;;;;12.37;4.97;;;11.80;99.90;;;;;;7288589;19;20216;-88
2023/05/18 06:08:42;;;;;;;16.63;5.80;;;11.60;99.90;;;;;;7311353;19;20181;-89
2023/05/18 06:11:08;;;;;;;20.03;6.47;;;11.60;99.90;;;;;;7289422;19;20199;-88
2023/05/18 06:13:34;;;;;;;20.10;6.20;;;11.80;99.90;;;;;;7288997;19;20181;-89
2023/05/18 06:16:00;;;;;;;16.70;6.17;;;11.90;99.90;;;;;;7288586;19;20192;-88
2023/05/18 06:18:26;;;;;;;18.80;5.73;;;11.90;99.90;;;;;;7289135;19;20187;-89
2023/05/18 06:20:58;;;;;;;17.73;6.07;;;11.90;99.90;;;;;;7288282;19;20559;-90
2023/05/18 06:23:25;;;;;;;14.47;5.17;;;12.00;99.90;;;;;;7288587;19;20184;-89
2023/05/18 06:25:53;;;;;;;15.30;5.73;;;12.10;99.90;;;;;;7288151;19;20261;-90
2023/05/18 06:28:38;;;;;;;19.17;5.27;;;12.10;99.90;;;;;;7288976;19;20186;-90
2023/05/18 06:31:21;;;;;;;16.20;5.67;;;12.10;99.90;;;;;;7185498;19;2004425;-89
2023/05/18 06:33:50;;;;;;;14.03;5.27;;;12.10;99.90;;;;;;7288161;19;20200;-89
2023/05/18 06:36:16;;;;;;;14.27;5.73;;;12.20;99.90;;;;;;7288336;19;20510;-89
2023/05/18 06:38:42;;;;;;;16.20;5.70;;;12.20;99.90;;;;;;7309907;19;20188;-89
2023/05/18 06:41:08;;;;;;;13.47;5.53;;;12.20;99.90;;;;;;7287779;19;20184;-89
2023/05/18 06:43:35;;;;;;;15.93;5.77;;;12.00;99.90;;;;;;7286265;19;20187;-90
2023/05/18 06:46:23;;;;;;;18.13;5.60;;;11.90;99.90;;;;;;7265470;19;20196;-89
2023/05/18 06:48:55;;;;;;;17.97;5.83;;;12.00;99.90;;;;;;7287134;19;20219;-89
2023/05/18 06:51:21;;;;;;;12.53;5.07;;;12.10;99.90;;;;;;7287132;19;20196;-89
2023/05/18 06:53:49;;;;;;;15.80;5.40;;;12.40;99.90;;;;;;7286601;19;20255;-89
2023/05/18 06:56:15;;;;;;;19.50;5.90;;;12.60;99.90;;;;;;7287599;19;20185;-89
2023/05/18 06:58:43;;;;;;;18.40;5.63;;;12.80;99.90;;;;;;7304851;19;20196;-90
2023/05/18 07:01:09;;;;;;;18.27;5.47;;;13.00;99.90;;;;;;7304089;19;20711;-90
2023/05/18 07:03:36;;;;;;;17.93;5.57;;;13.20;99.90;;;;;;7286635;19;20200;-90
2023/05/18 07:06:04;;;;;;;15.37;5.60;;;13.70;99.90;;;;;;7285464;19;20668;-90
2023/05/18 07:08:30;;;;;;;18.47;5.60;;;14.00;99.90;;;;;;7286703;19;20201;-90
2023/05/18 07:10:57;;;;;;;19.03;5.83;;;14.30;99.90;;;;;;7287110;19;20185;-90
2023/05/18 07:13:25;;;;;;;17.20;5.07;;;14.80;99.90;;;;;;7286828;19;20209;-90
2023/05/18 07:15:51;;;;;;;12.57;4.90;;;14.80;99.90;;;;;;7287178;19;20735;-90
2023/05/18 07:18:17;;;;;;;18.10;5.50;;;15.20;99.90;;;;;;7286553;19;20192;-90
2023/05/18 07:20:43;;;;;;;11.93;4.43;;;15.20;99.90;;;;;;7306066;19;20197;-91
2023/05/18 07:23:08;;;;;;;14.07;5.13;;;15.90;99.90;;;;;;7296410;19;20181;-90
2023/05/18 07:25:34;;;;;;;13.80;4.87;;;15.80;99.90;;;;;;7285576;19;20201;-90
2023/05/18 07:28:00;;;;;;;15.50;5.10;;;16.30;99.90;;;;;;7285773;19;20188;-90
2023/05/18 07:30:26;;;;;;;18.87;4.87;;;16.70;99.90;;;;;;7284707;19;20212;-90
2023/05/18 07:32:52;;;;;;;13.47;4.33;;;17.10;99.90;;;;;;7283721;19;20198;-90
2023/05/18 07:35:19;;;;;;;13.67;5.07;;;17.30;99.90;;;;;;7288445;19;20183;-90
2023/05/18 07:37:45;;;;;;;16.57;5.63;;;17.10;99.90;;;;;;7293087;19;20576;-89
2023/05/18 07:40:13;;;;;;;13.00;5.03;;;16.60;99.90;;;;;;7303690;19;20192;-90
2023/05/18 07:42:40;;;;;;;17.83;6.00;;;17.00;99.90;;;;;;7303037;19;20533;-90
2023/05/18 07:45:06;;;;;;;16.47;5.10;;;17.10;99.90;;;;;;7285400;19;20218;-90
2023/05/18 07:47:32;;;;;;;17.27;5.77;;;17.50;99.90;;;;;;7287296;19;20189;-89
2023/05/18 07:49:58;;;;;;;15.03;5.17;;;17.70;99.90;;;;;;7285346;19;20317;-88
2023/05/18 07:52:24;;;;;;;17.37;5.43;;;18.90;99.90;;;;;;7286180;19;20188;-88
2023/05/18 07:54:59;;;;;;;13.57;4.90;;;21.10;99.90;;;;;;7286460;19;20185;-89
2023/05/18 07:57:25;;;;;;;16.43;4.93;;;21.30;99.90;;;;;;7285296;19;20198;-89
2023/05/18 07:59:51;;;;;;;16.00;4.87;;;21.50;99.90;;;;;;7284157;19;20225;-89
2023/05/18 08:02:18;;;;;;;16.30;5.90;;;21.40;99.90;;;;;;7285867;19;20191;-89
2023/05/18 08:04:47;;;;;;;18.27;5.60;;;20.70;99.90;;;;;;7292935;19;20190;-88
2023/05/18 08:07:13;;;;;;;13.93;4.47;;;21.10;99.90;;;;;;7300564;19;20216;-90
2023/05/18 08:09:40;;;;;;;14.53;5.10;;;21.40;99.90;;;;;;7302199;19;20556;-88
2023/05/18 08:12:07;;;;;;;13.87;5.00;;;21.30;99.90;;;;;;7284618;19;20219;-89
2023/05/18 08:14:32;;;;;;;14.20;4.83;;;21.60;99.90;;;;;;7284190;19;20532;-89
2023/05/18 08:16:58;;;;;;;16.40;4.83;;;21.70;99.90;;;;;;7286062;19;20188;-89
2023/05/18 08:19:24;;;;;;;14.20;5.10;;;21.40;99.90;;;;;;7287092;19;20695;-90
2023/05/18 08:21:50;;;;;;;14.13;5.23;;;21.10;99.90;;;;;;7292476;19;20187;-89
2023/05/18 08:24:16;;;;;;;17.17;5.40;;;20.60;99.90;;;;;;7291347;19;20774;-89
2023/05/18 08:26:42;;;;;;;16.17;5.80;;;20.80;99.90;;;;;;7313882;19;20186;-89
2023/05/18 08:29:10;;;;;;;15.37;5.47;;;20.50;99.90;;;;;;7289618;19;20268;-89
2023/05/18 08:31:37;;;;;;;16.70;5.10;;;20.30;99.90;;;;;;7287736;19;20211;-88
2023/05/18 08:34:06;;;;;;;18.13;5.17;;;21.90;99.90;;;;;;7291286;19;21731;-88
2023/05/18 08:36:36;;;;;;;13.30;5.03;;;24.10;96.80;;;;;;7293317;19;20181;-89
2023/05/18 08:39:03;;;;;;;13.23;5.33;;;24.20;96.40;;;;;;7291527;19;20189;-90
2023/05/18 08:41:33;;;;;;;13.97;4.97;;;24.30;94.60;;;;;;7291873;19;20192;-88
2023/05/18 08:44:08;;;;;;;13.13;5.03;;;24.70;92.10;;;;;;7291816;19;20199;-90
2023/05/18 08:46:39;;;;;;;17.70;5.70;;;24.40;91.60;;;;;;7292355;19;20185;-89
2023/05/18 08:49:08;;;;;;;15.97;5.37;;;24.30;92.30;;;;;;7292071;19;20227;-90
2023/05/18 08:51:35;;;;;;;18.33;5.07;;;24.30;91.60;;;;;;7290697;19;20198;-89
2023/05/18 08:54:02;;;;;;;12.53;5.67;;;25.60;91.80;;;;;;7290399;19;20189;-89
2023/05/18 08:56:31;;;;;;;17.63;5.22;;;25.70;90.70;;;;;;7290848;19;20192;-90
2023/05/18 08:58:57;;;;;;;13.20;4.88;;;25.80;85.70;;;;;;7291085;19;20211;-89
2023/05/18 09:01:28;;;;;;;14.63;4.95;;;27.00;80.20;;;;;;7292305;19;20198;-89
2023/05/18 09:03:58;;;;;;;17.60;5.25;;;27.70;78.10;;;;;;7290927;19;20189;-89
2023/05/18 09:06:25;;;;;;;16.95;5.50;;;26.60;78.30;;;;;;7289745;19;20212;-89
2023/05/18 09:08:52;;;;;;;15.83;5.17;;;24.70;78.10;;;;;;7290888;19;20192;-90
2023/05/18 09:11:20;;;;;;;16.63;5.83;;;23.80;80.40;;;;;;7289960;19;20193;-88
2023/05/18 09:13:49;;;;;;;13.80;5.60;;;23.50;86.00;;;;;;7288923;19;20188;-89
2023/05/18 09:16:15;;;;;;;15.13;5.40;;;24.50;84.20;;;;;;7292714;19;20180;-89
2023/05/18 09:18:41;;;;;;;14.80;4.90;;;25.90;77.30;;;;;;7311756;19;20188;-90
2023/05/18 09:21:06;;;;;;;13.33;4.73;;;25.40;77.70;;;;;;7288757;19;20181;-90
2023/05/18 09:23:32;;;;;;;14.90;4.97;;;24.00;77.80;;;;;;7290197;19;20184;-89
2023/05/18 09:25:59;;;;;;;15.23;4.70;;;22.20;81.40;;;;;;7268604;19;20189;-89
2023/05/18 09:28:35;;;;;;;12.30;4.53;;;22.30;84.10;;;;;;7290083;19;20206;-89
2023/05/18 09:31:03;;;;;;;13.97;4.43;;;22.60;82.80;;;;;;7288453;19;20205;-89
2023/05/18 09:33:35;;;;;;;13.83;3.90;;;23.50;79.50;;;;;;7290324;19;20197;-89
2023/05/18 09:36:06;;;;;;;13.10;4.27;;;24.10;77.70;;;;;;7292863;19;20200;-88
2023/05/18 09:38:37;;;;;;;10.63;4.00;;;23.80;77.20;;;;;;7291337;19;20659;-89
2023/05/18 09:41:03;;;;;;;15.03;4.03;;;23.80;75.80;;;;;;7289875;19;20212;-89
2023/05/18 09:43:28;;;;;;;14.63;3.90;;;23.70;75.30;;;;;;7289422;19;20277;-89
2023/05/18 09:45:54;;;;;;;14.40;3.60;;;22.80;75.80;;;;;;7288963;19;20252;-89
2023/05/18 09:48:21;;;;;;;10.73;3.40;;;23.70;77.00;;;;;;7289296;19;20181;-88
2023/05/18 09:50:48;;;;;;;10.57;3.03;;;23.70;75.10;;;;;;7290504;19;20252;-89
2023/05/18 09:53:14;;;;;;;12.33;3.70;;;23.70;74.10;;;;;;7297314;19;20240;-89
2023/05/18 09:55:46;;;;;;;12.07;2.87;;;24.10;73.50;;;;;;7313382;19;20180;-89
2023/05/18 09:58:12;;;;;;;17.43;3.53;;;23.40;71.00;;;;;;7289775;19;20185;-89
2023/05/18 10:00:42;;;;;;;11.97;3.23;;;23.00;70.60;;;;;;7288449;19;20184;-89
2023/05/18 10:03:19;;;;;;;13.20;3.30;;;23.10;73.70;;;;;;7289520;19;20192;-89
2023/05/18 10:05:45;;;;;;;14.17;4.20;;;24.10;73.40;;;;;;7268966;19;20177;-89
2023/05/18 10:08:15;;;;;;;10.73;3.10;;;24.30;70.20;;;;;;7311701;19;20626;-89
2023/05/18 10:10:46;;;;;;;13.00;3.60;;;23.60;70.40;;;;;;7289863;19;20183;-89
2023/05/18 10:13:16;;;;;;;8.87;3.33;;;23.80;70.20;;;;;;7288374;19;20181;-89
2023/05/18 10:15:48;;;;;;;14.03;3.90;;;24.50;71.10;;;;;;7290056;19;20275;-89
2023/05/18 10:18:22;;;;;;;10.87;3.00;;;23.80;72.30;;;;;;7283834;19;20680;-88
2023/05/18 10:20:49;;;;;;;14.40;3.80;;;23.80;73.50;;;;;;7288293;19;20272;-89
2023/05/18 10:23:18;;;;;;;11.20;3.67;;;23.70;71.50;;;;;;7289577;19;20187;-89
2023/05/18 10:25:45;;;;;;;12.87;4.17;;;24.00;70.30;;;;;;7302892;19;20205;-89
2023/05/18 10:28:24;;;;;;;13.27;3.60;;;24.10;73.20;;;;;;7310983;19;20185;-90
2023/05/18 10:30:53;;;;;;;10.80;3.87;;;24.10;69.00;;;;;;7185814;19;2004752;-90
2023/05/18 10:33:27;;;;;;;15.93;4.30;;;24.60;70.90;;;;;;7287287;19;20230;-88
2023/05/18 10:35:53;;;;;;;13.67;4.30;;;25.40;69.60;;;;;;7288692;19;20656;-88
2023/05/18 10:38:29;;;;;;;12.50;4.60;;;24.80;68.50;;;;;;7286573;19;20184;-89
2023/05/18 10:41:17;;;;;;;14.70;4.00;;;23.90;72.30;;;;;;7288389;19;20252;-89
2023/05/18 10:43:55;;;;;;;12.83;4.00;;;24.40;72.60;;;;;;7293722;19;20189;-89
2023/05/18 10:46:25;;;;;;;12.47;4.10;;;24.20;69.90;;;;;;7187539;19;2004555;-89
2023/05/18 10:48:57;;;;;;;13.77;4.30;;;23.50;70.70;;;;;;7285740;19;20213;-90
2023/05/18 10:51:25;;;;;;;12.90;4.80;;;23.10;72.90;;;;;;7286355;19;20703;-89
2023/05/18 10:53:53;;;;;;;15.07;4.70;;;23.20;72.50;;;;;;7287163;19;20218;-89
2023/05/18 10:56:19;;;;;;;14.87;4.90;;;22.80;75.30;;;;;;7287346;19;20229;-89
2023/05/18 10:58:46;;;;;;;14.70;5.40;;;22.60;77.10;;;;;;7290237;19;20188;-89
2023/05/18 11:01:13;;;;;;;15.00;5.40;;;22.30;79.50;;;;;;7308864;19;20187;-89
2023/05/18 11:03:41;;;;;;;16.03;5.83;;;21.60;77.80;;;;;;7288403;19;20185;-89
2023/05/18 11:06:09;;;;;;;13.83;5.00;;;21.20;79.30;;;;;;7285962;19;20185;-90
2023/05/18 11:09:02;;;;;;;12.87;4.40;;;21.20;81.50;;;;;;7287386;19;20181;-89
2023/05/18 11:11:30;;;;;;;14.63;4.83;;;21.00;80.40;;;;;;7183955;19;2004603;-89
2023/05/18 11:14:01;;;;;;;10.23;4.33;;;21.40;83.50;;;;;;7286015;19;20530;-89
2023/05/18 11:16:34;;;;;;;13.83;4.73;;;22.90;79.00;;;;;;7286809;19;20191;-90
2023/05/18 11:19:10;;;;;;;14.87;5.47;;;23.50;78.10;;;;;;7286675;19;20265;-89
2023/05/18 11:21:35;;;;;;;16.30;6.00;;;23.60;76.00;;;;;;7287281;19;20192;-89
2023/05/18 11:24:19;;;;;;;12.30;4.13;;;23.10;75.20;;;;;;7286541;19;20599;-89
2023/05/18 11:26:56;;;;;;;13.07;4.23;;;22.60;74.10;;;;;;7270911;19;20183;-90
2023/05/18 11:29:33;;;;;;;12.87;4.23;;;23.60;75.50;;;;;;7287296;19;20181;-89
2023/05/18 11:31:59;;;;;;;16.63;4.83;;;23.80;72.70;;;;;;7285815;19;20657;-90
2023/05/18 11:34:39;;;;;;;10.83;4.30;;;23.90;78.40;;;;;;7286324;19;20195;-89
2023/05/18 11:37:08;;;;;;;11.53;4.20;;;24.80;75.20;;;;;;7286252;19;20187;-89
2023/05/18 11:39:34;;;;;;;15.07;4.57;;;24.00;69.60;;;;;;7285192;19;20269;-89
2023/05/18 11:42:13;;;;;;;14.63;4.30;;;22.90;71.20;;;;;;7286112;19;20240;-89
2023/05/18 11:44:39;;;;;;;11.67;4.20;;;22.50;71.10;;;;;;7285509;19;20535;-89
2023/05/18 11:47:08;;;;;;;12.23;3.90;;;22.70;73.10;;;;;;7287549;19;20197;-90
2023/05/18 11:49:44;;;;;;;14.80;4.23;;;23.30;72.60;;;;;;7287564;19;20190;-89
2023/05/18 11:52:17;;;;;;;13.90;4.37;;;23.00;77.10;;;;;;7285800;19;20230;-89
2023/05/18 11:54:56;;;;;;;16.83;4.23;;;22.80;78.00;;;;;;7294162;19;20176;-89
2023/05/18 11:57:40;;;;;;;11.90;4.40;;;23.00;75.50;;;;;;7190336;19;2004582;-89
2023/05/18 12:00:10;;;;;;;14.77;4.70;;;22.80;73.90;;;;;;7291864;19;20188;-89
2023/05/18 12:02:44;;;;;;;13.63;4.40;;;22.20;77.00;;;;;;7293440;19;20184;-89
2023/05/18 12:05:10;;;;;;;16.37;4.67;;;21.70;79.50;;;;;;7291937;19;20191;-88
2023/05/18 12:07:37;;;;;;;15.27;4.90;;;21.80;76.80;;;;;;7293039;19;20196;-88
2023/05/18 12:10:09;;;;;;;12.53;3.90;;;21.40;79.00;;;;;;7291383;19;20192;-88
2023/05/18 12:12:35;;;;;;;10.40;3.70;;;21.20;80.70;;;;;;7292224;19;20252;-88
2023/05/18 12:15:05;;;;;;;12.30;4.00;;;20.90;77.40;;;;;;7292168;19;20217;-88
2023/05/18 12:17:48;;;;;;;11.20;3.87;;;20.30;81.50;;;;;;7291525;19;20181;-89
2023/05/18 12:20:17;;;;;;;11.03;4.03;;;20.20;82.00;;;;;;7291853;19;20180;-89
2023/05/18 12:22:49;;;;;;;11.20;4.30;;;20.30;84.50;;;;;;7313960;19;20244;-88
2023/05/18 12:25:15;;;;;;;17.90;4.50;;;20.30;84.20;;;;;;7285018;19;20179;-89
2023/05/18 12:27:42;;;;;;;11.37;4.67;;;20.10;83.20;;;;;;7309799;19;20190;-89
2023/05/18 12:30:33;;;;;;;13.10;4.70;;;19.90;85.60;;;;;;7291632;19;20179;-88
2023/05/18 12:33:01;;;;;;;14.90;4.57;;;20.00;88.10;;;;;;7189280;19;2004412;-89
2023/05/18 12:35:28;;;;;;;12.77;4.27;;;20.00;84.40;;;;;;7292727;19;20189;-88
2023/05/18 12:37:56;;;;;;;10.23;4.53;;;19.80;88.60;;;;;;7292552;19;20196;-88
2023/05/18 12:40:22;;;;;;;14.90;4.63;;;19.70;86.10;;;;;;7291089;19;20588;-89
2023/05/18 12:42:59;;;;;;;14.70;4.63;;;19.70;87.30;;;;;;7291426;19;20191;-89
2023/05/18 12:45:26;;;;;;;12.50;4.40;;;19.60;87.20;;;;;;7291257;19;20190;-88
2023/05/18 12:47:56;;;;;;;14.37;4.57;;;19.40;87.60;;;;;;7291408;19;20250;-88
2023/05/18 12:50:24;;;;;;;16.47;4.20;;;19.20;86.90;;;;;;7292880;19;20179;-89